Database: COMPET-N - COOP - 3PL - 4PL - CNDOOM

WAD: Doom | Doom 2 | TNT | Plutonia | AV | HR | Scythe | MM | MM2 | Requiem | CE
Category: speed | nmare | max | nm100s | tyson | pacifist | fast | respawn | nomo | misc | built | all
Highscore: ALL | IWAD | PWAD | Country | Continent

< Previous map       Next map >
Remove: wad | map | category | player | allMAP22
MapPlayerTimeDateFilenameCommentsDL
MAP22: The CatacombsVincent Catalaa37.002000-01-09lv22-037.zip - 268
MAP22: The CatacombsJaromir Cihak40.001999-12-17lv22-040.zip - 279
MAP22: The CatacombsThomas Pilger44.001998-07-22lv22-044.zip - 154
MAP22: The CatacombsAnders Johnsen47.001998-07-21lv22-047.zip - 162
MAP22: The CatacombsThomas Pilger53.001998-01-27lv22-053.zip - 156
MAP22: The CatacombsDaniel Lindgren56.001996-06-08lv22-056.zip - 187
MAP22: The CatacombsMichael Kren1:02.001996-03-30lv22-102.zip - 113
MAP22: The CatacombsIstvan Pataki1:14.001996-03-29lv22-114.zip - 120
MAP22: The CatacombsDaniel Lindgren1:20.001996-02-05lv22-120.zip - 137
MAP22: The CatacombsIstvan Pataki1:35.001996-01-29lv22-135.zip - 120
MAP22: The CatacombsJC Dorne47.232014-12-23nm22-047.zip - 653
MAP22: The CatacombsDavid Ficenec50.002003-01-17nm22-050.zip - 205
MAP22: The CatacombsThomas Pilger51.001998-07-11nm22-051.zip - 163
MAP22: The CatacombsThomas Pilger52.001998-07-06nm22-052.zip - 172
MAP22: The CatacombsThomas Pilger54.001998-06-29nm22-054.zip - 161
MAP22: The CatacombsThomas Pilger1:02.001998-06-24nm22-102.zip - 171
MAP22: The CatacombsThomas Pilger1:16.001998-06-23nm22-116.zip - 130
MAP22: The CatacombsThomas Pilger1:46.001998-04-19nm22-146.zip - 165
MAP22: The CatacombsAndreas Kren2:26.001997-01-03nm22-226.zip - 137
MAP22: The CatacombsDrew DeVore1:10.002013-08-09lv22-110.zip1389
MAP22: The CatacombsRadek Pecka1:11.002004-01-18lv22-111.zip - 194
MAP22: The CatacombsHenning Skogsto1:17.002000-02-16lv22-117.zip - 178
MAP22: The CatacombsVincent Catalaa1:20.001999-12-03lv22-120.zip - 156
MAP22: The CatacombsHenning Skogsto1:25.001998-07-22lv22-125.zip - 187
MAP22: The CatacombsIan Sutton1:31.001998-01-11lv22-131.zip - 149
MAP22: The CatacombsDaniel Lindgren1:34.001996-08-27lv22-134.zip - 134
MAP22: The CatacombsMichael Kren2:08.001996-05-12lv22-208.zip - 135
MAP22: The CatacombsYonatan Donner2:11.001996-08-19lv22-211.zip - 100
MAP22: The CatacombsDaniel Lindgren2:13.001995-11-22lv22-213.zip - 148
MAP22: The CatacombsSven Huth2:29.001995-04-16lv22-229.zip - 248
MAP22: The CatacombsIan Jefferies4:55.001995-03-22lv22-455.zip - 130
MAP22: The CatacombsJC Dorne47.232014-12-23ns22-047.zip - 831
MAP22: The CatacombsDavid Ficenec50.002003-01-17nm22-050.zip - 181
MAP22: The CatacombsJim Leonard2:14.002006-02-06ty22-214.zip - 295
MAP22: The CatacombsHenning Skogsto2:49.001999-05-13ty22-249.zip - 146
MAP22: The CatacombsDaniel Lindgren3:37.001997-06-30ty22-337.zip - 160
MAP22: The CatacombsOyvind Stenhaug1:03.002001-07-30pa22-103.zip - 279
MAP22: The CatacombsHenning Skogsto1:20.001999-05-14pa22-120.zip - 137
MAP22: The CatacombsThomas Pilger1:40.001999-02-28pa22-140.zip - 135
MAP22: The CatacombsRadek Pecka1:27.002003-01-22fa22-127.zip - 265
MAP22: The CatacombsHenning Skogsto1:40.001998-08-30fa22-140.zip - 185
MAP22: The CatacombsThomas Pilger1:51.001998-04-22fa22-151.zip - 167
MAP22: The CatacombsPeo Sjoblom2:27.001997-03-28fa22-227.zip - 133
MAP22: The CatacombsPeo Sjoblom6:42.001996-07-12fa22-642.zip - 148
MAP22: The CatacombsRadek Pecka1:27.002001-05-21re22-127.zip - 279
MAP22: The CatacombsChris Ratcliff1:39.002001-03-23re22-139.zip - 182
MAP22: The CatacombsHenning Skogsto1:52.001998-09-06re22-152.zip - 148
MAP22: The CatacombsThomas Pilger2:08.001998-04-22re22-208.zip - 148
MAP22: The CatacombsSteffen Udluft3:14.001997-09-08re22-314.zip - 123
MAP22: The CatacombsLooper 18.632014-05-07d2201863.zip - 327
MAP22: The CatacombsAdam Hegyi30.482000-05-08d2203048.zip - 160
Remove: wad | map | category | player | all